CheckWX is a tool to help pilots better visualize weather data.  It is not intended as a substitute for an official pre-flight weather briefing.

07:10:39 UTC

DAUZ TAF
In Aménas Airport
Aménas, Algeria
TAF DAUZ 200500Z 2006/2106 08012KT 8000 NSC PROB30 TEMPO 2007/2011 12015G25KT 5000 DRSA

Jun-20@
06:00 UTC

Jun-20 @ 06:00 UTC

Jun-21@
06:00 UTC

Jun-21 @ 06:00 UTC

TAF DAUZ 200500Z 2006/2106 08012KT 8000 NSC
Wind
  • 080° at 12 KTS
Cloud Levels
  • No significant clouds

Jun-20@
07:00 UTC

Jun-20 @ 07:00 UTC

Jun-20@
11:00 UTC

Jun-20 @ 11:00 UTC

PROB30 TEMPO 2007/2011 12015G25KT 5000 DRSA

Temporary - 30% Likelihood

Temporary - 30% Likelihood during this time.

Wind
  • 120° at 15 KTS
  • {Gusting to 25 KTS
Conditions
Low drifting Sand